Time;durP1;ratioP1;P1;durP2;ratioP2;P2;SDS_P1;SDS_P2;PMS_P1;PMS_P2;Temp;Humidity;BMP_temperature;BMP_pressure;BME280_temperature;BME280_humidity;BME280_pressure;Samples;Min_cycle;Max_cycle;Signal;HPM_P1;HPM_P2
2022/08/10 00:02:59;;;;;;;14.00;6.30;;;;;;;13.13;100.00;101181.01;104720;1274;63107;-65
2022/08/10 00:05:48;;;;;;;11.30;6.60;;;;;;;13.12;100.00;101177.14;104903;1274;74652;-64
2022/08/10 00:08:40;;;;;;;13.80;6.80;;;;;;;13.10;100.00;101177.83;104932;1274;68701;-65
2022/08/10 00:11:28;;;;;;;12.00;6.50;;;;;;;13.09;100.00;101180.75;104698;1277;73267;-68
2022/08/10 00:14:17;;;;;;;13.00;6.40;;;;;;;13.08;100.00;101180.98;104900;1274;60557;-65
2022/08/10 00:17:05;;;;;;;11.00;6.20;;;;;;;13.08;100.00;101178.14;104825;1274;61247;-66
2022/08/10 00:19:52;;;;;;;14.20;6.40;;;;;;;13.08;100.00;101179.21;104769;1274;73204;-64
2022/08/10 00:22:54;;;;;;;12.50;6.60;;;;;;;13.06;100.00;101179.34;104955;1274;66850;-66
2022/08/10 00:25:45;;;;;;;11.60;5.90;;;;;;;13.05;100.00;101178.50;104943;1274;73103;-66
2022/08/10 00:28:33;;;;;;;11.00;6.10;;;;;;;13.06;100.00;101180.95;104525;1274;60514;-66
2022/08/10 00:31:22;;;;;;;11.30;6.40;;;;;;;13.04;100.00;101183.23;104571;1276;60563;-65
2022/08/10 00:34:10;;;;;;;10.90;5.10;;;;;;;13.01;100.00;101175.98;104769;1274;74678;-66
2022/08/10 00:37:01;;;;;;;11.30;5.90;;;;;;;12.98;100.00;101177.23;104747;1274;68658;-64
2022/08/10 00:39:49;;;;;;;12.70;6.10;;;;;;;12.93;100.00;101170.98;104515;1277;72189;-65
2022/08/10 00:42:37;;;;;;;10.50;5.70;;;;;;;12.97;100.00;101177.65;104726;1274;61257;-63
2022/08/10 00:45:25;;;;;;;12.80;6.70;;;;;;;12.94;100.00;101177.11;104816;1274;61378;-65
2022/08/10 00:48:13;;;;;;;11.90;5.70;;;;;;;12.91;100.00;101177.15;104785;1274;73871;-65
2022/08/10 00:51:01;;;;;;;10.90;5.70;;;;;;;12.90;100.00;101177.23;104712;1274;68439;-64
2022/08/10 00:53:49;;;;;;;13.10;6.50;;;;;;;12.90;100.00;101177.61;104729;1274;74492;-64
2022/08/10 00:56:37;;;;;;;14.50;7.10;;;;;;;12.89;100.00;101181.41;104739;1274;61281;-64
2022/08/10 00:59:46;;;;;;;11.50;5.80;;;;;;;12.88;100.00;101175.23;104795;1274;60507;-66
2022/08/10 01:02:46;;;;;;;11.40;6.60;;;;;;;12.88;100.00;101175.42;104977;1274;74100;-64
2022/08/10 01:05:48;;;;;;;11.70;6.10;;;;;;;12.87;100.00;101174.09;104724;1274;69146;-63
2022/08/10 01:08:57;;;;;;;12.00;6.40;;;;;;;12.87;100.00;101171.77;104533;1275;72775;-69
2022/08/10 01:11:53;;;;;;;12.50;6.80;;;;;;;12.88;100.00;101174.15;104706;1274;60575;-66
2022/08/10 01:15:30;;;;;;;13.90;6.00;;;;;;;12.87;100.00;101170.53;104760;1276;60456;-66
2022/08/10 01:19:15;;;;;;;12.30;5.80;;;;;;;12.84;100.00;101170.89;104687;1276;75574;-64
2022/08/10 01:22:32;;;;;;;11.80;6.00;;;;;;;12.81;100.00;101173.44;104649;1277;68036;-65
2022/08/10 01:26:03;;;;;;;11.50;5.70;;;;;;;12.78;100.00;101169.52;104810;1276;72194;-66
2022/08/10 01:29:33;;;;;;;9.80;5.50;;;;;;;12.75;100.00;101166.34;104514;1276;60501;-65
2022/08/10 01:32:49;;;;;;;11.60;5.90;;;;;;;12.73;100.00;101161.29;104676;1277;60406;-64
2022/08/10 01:35:45;;;;;;;11.00;5.70;;;;;;;12.71;100.00;101159.52;104679;1276;73227;-65
2022/08/10 01:38:41;;;;;;;12.50;5.50;;;;;;;12.70;100.00;101162.63;104429;1276;67124;-63
2022/08/10 01:41:41;;;;;;;11.20;5.60;;;;;;;12.70;100.00;101167.98;104264;1276;72566;-64
2022/08/10 01:44:39;;;;;;;12.50;5.80;;;;;;;12.65;100.00;101164.60;104627;1276;60488;-63
2022/08/10 01:50:57;;;;;;;12.70;6.20;;;;;;;12.59;100.00;101154.25;104566;1274;75532;-67
2022/08/10 01:54:11;;;;;;;10.50;5.60;;;;;;;12.58;100.00;101160.20;104717;1276;68316;-64
2022/08/10 01:57:01;;;;;;;14.40;6.10;;;;;;;12.57;100.00;101160.13;104503;1276;72111;-64
2022/08/10 01:59:51;;;;;;;11.40;5.40;;;;;;;12.54;100.00;101163.72;104679;1277;61249;-62
2022/08/10 02:02:56;;;;;;;13.30;5.80;;;;;;;12.48;100.00;101161.41;104798;1277;61131;-65
2022/08/10 02:05:52;;;;;;;11.70;6.00;;;;;;;12.43;100.00;101160.88;104728;1275;74094;-63
2022/08/10 02:08:44;;;;;;;12.50;5.80;;;;;;;12.39;100.00;101166.86;104890;1276;67695;-62
2022/08/10 02:11:37;;;;;;;10.30;5.60;;;;;;;12.36;100.00;101164.92;104582;1277;73543;-64
2022/08/10 02:14:55;;;;;;;13.00;6.70;;;;;;;12.32;100.00;101164.80;104536;1276;60501;-65
2022/08/10 02:17:58;;;;;;;13.80;6.70;;;;;;;12.30;100.00;101160.89;104444;1277;60451;-65
2022/08/10 02:20:52;;;;;;;12.20;5.40;;;;;;;12.29;100.00;101163.95;104471;1277;75640;-63
2022/08/10 02:23:42;;;;;;;11.60;6.30;;;;;;;12.29;100.00;101160.92;104493;1277;69637;-65
2022/08/10 02:26:32;;;;;;;11.40;5.60;;;;;;;12.30;100.00;101161.25;104766;1276;73382;-66
2022/08/10 02:29:20;;;;;;;11.70;5.90;;;;;;;12.27;100.00;101161.95;104529;1276;60479;-64
2022/08/10 02:32:11;;;;;;;13.30;6.40;;;;;;;12.26;100.00;101163.98;104692;1276;60448;-64
2022/08/10 02:35:12;;;;;;;12.60;6.80;;;;;;;12.24;100.00;101167.66;104478;1276;75788;-63
2022/08/10 02:38:12;;;;;;;11.70;6.40;;;;;;;12.23;100.00;101172.55;104701;1276;68746;-67
2022/08/10 02:41:33;;;;;;;14.10;6.40;;;;;;;12.21;100.00;101176.73;104683;1276;72557;-66
2022/08/10 02:44:55;;;;;;;16.20;6.70;;;;;;;12.20;100.00;101180.20;104689;1276;60494;-66
2022/08/10 02:48:12;;;;;;;11.40;6.20;;;;;;;12.20;100.00;101183.64;104730;1276;61642;-65
2022/08/10 02:51:10;;;;;;;11.00;6.00;;;;;;;12.18;100.00;101181.63;104683;1276;74503;-66
2022/08/10 02:54:07;;;;;;;11.70;5.60;;;;;;;12.13;100.00;101170.40;104442;1276;69626;-64
2022/08/10 02:57:10;;;;;;;10.60;5.70;;;;;;;12.16;100.00;101177.45;104390;1276;74514;-65
2022/08/10 03:00:06;;;;;;;12.30;6.40;;;;;;;12.12;100.00;101169.39;104391;1277;60479;-65
2022/08/10 03:02:56;;;;;;;10.20;5.70;;;;;;;12.16;100.00;101176.59;104475;1276;61063;-66
2022/08/10 03:05:48;;;;;;;11.60;5.20;;;;;;;12.17;100.00;101180.27;104716;1277;75186;-64
2022/08/10 03:08:42;;;;;;;10.90;6.20;;;;;;;12.17;100.00;101181.84;104496;1276;69646;-57
2022/08/10 03:11:33;;;;;;;12.90;6.10;;;;;;;12.18;100.00;101179.46;104387;1277;72446;-64
2022/08/10 03:14:43;;;;;;;11.20;5.40;;;;;;;12.18;100.00;101178.06;104701;1274;60600;-63
2022/08/10 03:17:32;;;;;;;10.40;5.60;;;;;;;12.17;100.00;101183.42;104614;1274;60554;-62
2022/08/10 03:20:22;;;;;;;11.70;5.80;;;;;;;12.16;100.00;101185.64;104522;1274;74509;-64
2022/08/10 03:23:27;;;;;;;11.60;5.40;;;;;;;12.15;100.00;101189.84;104530;1274;68647;-64
2022/08/10 03:26:16;;;;;;;10.10;5.20;;;;;;;12.13;100.00;101192.97;104550;1274;74419;-64
2022/08/10 03:29:08;;;;;;;11.70;5.50;;;;;;;12.10;100.00;101191.73;104706;1274;60964;-65
2022/08/10 03:31:58;;;;;;;12.10;5.50;;;;;;;12.09;100.00;101195.15;104805;1274;62225;-63
2022/08/10 03:34:47;;;;;;;12.10;5.40;;;;;;;12.08;100.00;101198.98;104750;1274;74484;-65
2022/08/10 03:37:35;;;;;;;9.90;5.00;;;;;;;12.09;100.00;101197.52;104741;1274;67111;-63
2022/08/10 03:40:25;;;;;;;12.10;5.20;;;;;;;12.10;100.00;101195.46;104595;1275;73586;-63
2022/08/10 03:43:33;;;;;;;10.50;5.00;;;;;;;12.11;100.00;101198.45;104620;1274;60501;-63
2022/08/10 03:46:27;;;;;;;10.10;5.00;;;;;;;12.13;100.00;101199.00;104698;1274;61356;-64
2022/08/10 03:49:18;;;;;;;9.50;5.00;;;;;;;12.15;100.00;101200.17;104513;1274;75047;-64
2022/08/10 03:52:08;;;;;;;10.00;5.00;;;;;;;12.15;100.00;101200.98;104824;1275;68561;-64
2022/08/10 03:54:58;;;;;;;10.60;4.90;;;;;;;12.18;100.00;101204.91;104773;1274;74400;-64
2022/08/10 03:57:47;;;;;;;10.40;5.50;;;;;;;12.18;100.00;101200.07;104766;1274;60571;-64
2022/08/10 04:00:37;;;;;;;10.80;5.30;;;;;;;12.21;100.00;101200.95;104556;1274;60562;-64
2022/08/10 04:03:27;;;;;;;11.20;5.10;;;;;;;12.24;100.00;101198.23;104694;1274;74584;-64
2022/08/10 04:06:16;;;;;;;12.00;5.30;;;;;;;12.27;100.00;101200.38;104724;1274;70034;-63
2022/08/10 04:09:04;;;;;;;11.90;5.70;;;;;;;12.32;100.00;101203.63;104962;1274;73950;-63
2022/08/10 04:11:52;;;;;;;10.90;5.10;;;;;;;12.34;100.00;101203.15;104711;1274;60576;-65
2022/08/10 04:14:40;;;;;;;10.00;5.50;;;;;;;12.39;100.00;101202.45;104808;1274;60545;-64
2022/08/10 04:17:37;;;;;;;11.00;5.40;;;;;;;12.43;100.00;101201.48;104960;1274;75040;-64
2022/08/10 04:20:55;;;;;;;11.50;5.60;;;;;;;12.48;100.00;101202.55;104743;1274;68418;-64
2022/08/10 04:23:48;;;;;;;10.50;5.50;;;;;;;12.55;100.00;101201.55;104631;1274;72105;-65
2022/08/10 04:26:41;;;;;;;9.10;4.70;;;;;;;12.61;100.00;101199.38;105202;1274;60668;-63
2022/08/10 04:29:29;;;;;;;9.60;4.70;;;;;;;12.68;100.00;101199.58;104720;1274;60484;-64
2022/08/10 04:32:21;;;;;;;11.30;5.10;;;;;;;12.76;100.00;101199.41;104493;1274;75476;-63
2022/08/10 04:35:11;;;;;;;12.40;4.90;;;;;;;12.84;100.00;101200.61;105032;1274;69156;-60
2022/08/10 04:38:07;;;;;;;10.70;5.20;;;;;;;12.92;100.00;101204.03;104462;1276;73560;-67
2022/08/10 04:40:55;;;;;;;12.50;5.30;;;;;;;13.01;100.00;101205.19;104704;1276;60505;-62
2022/08/10 04:43:44;;;;;;;10.60;5.10;;;;;;;13.09;100.00;101206.56;104581;1274;62295;-62
2022/08/10 04:46:33;;;;;;;11.00;5.90;;;;;;;13.16;100.00;101207.66;104687;1274;75582;-64
2022/08/10 04:49:41;;;;;;;10.70;5.60;;;;;;;13.25;100.00;101214.34;104841;1274;68795;-61
2022/08/10 04:52:43;;;;;;;9.70;4.90;;;;;;;13.36;100.00;101220.94;104422;1274;72588;-66
2022/08/10 04:55:31;;;;;;;11.90;5.40;;;;;;;13.47;100.00;101221.02;104430;1274;60498;-64
2022/08/10 04:58:19;;;;;;;10.50;4.90;;;;;;;13.60;100.00;101219.55;104609;1274;60344;-64
2022/08/10 05:01:07;;;;;;;9.90;4.70;;;;;;;13.72;100.00;101223.52;104846;1276;74624;-64
2022/08/10 05:03:55;;;;;;;10.30;5.00;;;;;;;13.84;100.00;101220.90;104601;1276;67807;-65
2022/08/10 05:07:15;;;;;;;9.70;4.40;;;;;;;13.98;100.00;101223.97;105039;1276;73258;-63
2022/08/10 05:10:06;;;;;;;12.10;4.80;;;;;;;14.11;100.00;101223.87;104624;1277;60607;-64
2022/08/10 05:12:59;;;;;;;9.90;4.40;;;;;;;14.23;100.00;101223.15;104687;1274;61282;-63
2022/08/10 05:15:50;;;;;;;9.90;4.60;;;;;;;14.37;99.71;101224.65;104731;1274;74490;-66
2022/08/10 05:18:39;;;;;;;9.50;4.30;;;;;;;14.54;99.00;101227.09;104608;1274;68518;-65
2022/08/10 05:21:26;;;;;;;10.10;4.30;;;;;;;14.78;97.95;101221.23;104592;1274;73119;-65
2022/08/10 05:24:35;;;;;;;9.40;4.20;;;;;;;15.16;96.51;101217.85;104614;1274;60437;-65
2022/08/10 05:27:23;;;;;;;8.50;3.60;;;;;;;15.80;94.78;101219.41;104023;1274;1156257;-67
2022/08/10 05:30:17;;;;;;;11.30;4.10;;;;;;;16.76;92.04;101214.55;104679;1274;73821;-65
2022/08/10 05:33:05;;;;;;;8.60;3.70;;;;;;;17.96;86.95;101208.46;104589;1274;67492;-63
2022/08/10 05:35:57;;;;;;;9.60;3.30;;;;;;;19.12;81.20;101207.85;104722;1274;73375;-64
2022/08/10 05:38:47;;;;;;;11.00;3.50;;;;;;;20.21;75.05;101203.25;104733;1275;60657;-65
2022/08/10 05:41:36;;;;;;;8.70;3.30;;;;;;;21.26;70.40;101201.46;104550;1275;61911;-63
2022/08/10 05:44:32;;;;;;;8.50;2.90;;;;;;;22.22;65.73;101198.04;104694;1274;75569;-63
2022/08/10 05:47:20;;;;;;;7.50;2.90;;;;;;;23.14;61.78;101199.33;104479;1275;68981;-67
2022/08/10 05:50:10;;;;;;;6.10;2.50;;;;;;;23.96;57.78;101196.95;104325;1274;73393;-65
2022/08/10 05:52:58;;;;;;;6.50;2.40;;;;;;;24.63;54.09;101191.27;104616;1274;61216;-66
2022/08/10 05:56:08;;;;;;;13.00;7.50;;;;;;;25.34;52.39;101191.28;104617;1274;60471;-66
2022/08/10 05:58:55;;;;;;;7.70;2.90;;;;;;;25.89;48.99;101190.72;104553;1274;73571;-68
2022/08/10 06:01:47;;;;;;;6.90;2.50;;;;;;;26.40;47.65;101193.13;104725;1274;67013;-65
2022/08/10 06:05:03;;;;;;;6.30;2.00;;;;;;;26.91;45.66;101193.54;104618;1274;72280;-66
2022/08/10 06:08:12;;;;;;;6.40;2.20;;;;;;;27.31;43.48;101194.49;104672;1274;60515;-65
2022/08/10 06:11:04;;;;;;;5.60;2.00;;;;;;;27.69;42.18;101195.17;104351;1274;63542;-65
2022/08/10 06:17:24;;;;;;;6.10;1.70;;;;;;;28.39;39.49;101186.89;104537;1274;66886;-65
2022/08/10 06:20:13;;;;;;;5.50;1.90;;;;;;;28.67;38.98;101181.46;104609;1274;72016;-63
2022/08/10 06:23:03;;;;;;;5.50;1.80;;;;;;;28.99;37.77;101184.91;104606;1275;60512;-64
2022/08/10 06:25:51;;;;;;;6.50;2.00;;;;;;;29.15;36.92;101186.44;104869;1274;61734;-65
2022/08/10 06:29:08;;;;;;;7.10;1.90;;;;;;;29.29;35.92;101186.32;104941;1274;74680;-64
2022/08/10 06:31:59;;;;;;;5.70;1.80;;;;;;;29.52;35.35;101183.52;104668;1277;69149;-63
2022/08/10 06:34:52;;;;;;;7.10;1.80;;;;;;;29.67;33.92;101180.03;104863;1274;72728;-65
2022/08/10 06:37:43;;;;;;;5.40;1.60;;;;;;;30.01;34.28;101180.83;104588;1276;60602;-63
2022/08/10 06:40:44;;;;;;;6.50;2.20;;;;;;;30.24;33.31;101178.54;104891;1274;60471;-63
2022/08/10 06:43:34;;;;;;;6.40;1.70;;;;;;;30.02;33.26;101180.23;104567;1276;74749;-67
2022/08/10 06:46:24;;;;;;;5.90;1.60;;;;;;;29.92;33.69;101186.58;104799;1276;68073;-67
2022/08/10 06:49:14;;;;;;;5.50;1.60;;;;;;;30.17;33.54;101187.13;104546;1276;72564;-63
2022/08/10 06:52:09;;;;;;;6.80;1.70;;;;;;;30.36;33.39;101181.28;104616;1276;60502;-65
2022/08/10 06:55:10;;;;;;;5.60;1.80;;;;;;;29.87;34.20;101181.11;104809;1274;62472;-64
2022/08/10 06:58:02;;;;;;;6.00;1.70;;;;;;;29.74;34.33;101187.84;104441;1276;75492;-63
2022/08/10 07:00:55;;;;;;;5.50;1.70;;;;;;;28.99;35.61;101190.52;104719;1276;66717;-66
2022/08/10 07:03:57;;;;;;;5.20;1.60;;;;;;;28.01;36.92;101191.63;104616;1276;72636;-66
2022/08/10 07:06:49;;;;;;;6.20;1.80;;;;;;;26.84;39.24;101193.30;104412;1277;60491;-61
2022/08/10 07:09:39;;;;;;;7.20;2.20;;;;;;;26.01;40.99;101193.10;104625;1276;60788;-64
2022/08/10 07:12:30;;;;;;;7.20;2.30;;;;;;;25.43;42.62;101189.61;104626;1277;74348;-67
2022/08/10 07:15:21;;;;;;;7.20;2.10;;;;;;;25.56;43.19;101187.13;104932;1275;69648;-68
2022/08/10 07:18:31;;;;;;;8.20;2.30;;;;;;;26.48;42.11;101186.78;104614;1274;72057;-67
2022/08/10 07:21:21;;;;;;;7.60;2.90;;;;;;;27.54;40.25;101184.83;104674;1274;60469;-76
2022/08/10 07:24:15;;;;;;;9.50;4.20;;;;;;;28.92;38.10;101177.55;105017;1274;60538;-75
2022/08/10 07:27:04;;;;;;;7.10;2.20;;;;;;;30.79;35.06;101174.98;104989;1274;72782;-71
2022/08/10 07:29:54;;;;;;;6.20;1.90;;;;;;;32.16;31.86;101172.73;104837;1274;66512;-75
2022/08/10 07:32:47;;;;;;;7.70;2.00;;;;;;;33.24;30.21;101166.26;104817;1275;72728;-72
2022/08/10 07:35:38;;;;;;;5.90;1.70;;;;;;;34.27;28.53;101166.64;104879;1274;60325;-72
2022/08/10 07:38:32;;;;;;;7.20;1.80;;;;;;;35.17;27.28;101166.63;104910;1274;60612;-73
2022/08/10 07:41:23;;;;;;;7.10;2.00;;;;;;;35.96;26.26;101167.55;104689;1274;74036;-70
2022/08/10 07:44:13;;;;;;;6.00;1.70;;;;;;;36.71;25.51;101158.57;104907;1274;68003;-74
2022/08/10 07:47:04;;;;;;;6.50;1.60;;;;;;;37.07;24.26;101157.98;104954;1274;72176;-75
2022/08/10 07:50:00;;;;;;;5.30;1.30;;;;;;;37.52;24.34;101156.98;105139;1274;60326;-74
2022/08/10 07:52:50;;;;;;;5.80;1.80;;;;;;;37.65;23.14;101156.34;104914;1274;60563;-73
2022/08/10 07:55:42;;;;;;;6.00;1.80;;;;;;;38.23;23.04;101158.13;104702;1274;73235;-71
2022/08/10 07:59:03;;;;;;;6.80;1.50;;;;;;;38.45;22.13;101161.77;105082;1274;67244;-72
2022/08/10 08:01:55;;;;;;;5.50;1.50;;;;;;;36.86;23.71;101165.20;104675;1276;74467;-73
2022/08/10 08:04:44;;;;;;;6.10;1.60;;;;;;;34.78;25.84;101166.13;104831;1274;60507;-70
2022/08/10 08:07:35;;;;;;;6.70;1.70;;;;;;;32.94;27.98;101166.08;104699;1274;61694;-71
2022/08/10 08:10:28;;;;;;;6.60;2.20;;;;;;;31.36;30.30;101169.66;104837;1274;73795;-71
2022/08/10 08:13:21;;;;;;;7.20;2.30;;;;;;;30.32;32.36;101166.10;105098;1274;69760;-68
2022/08/10 08:16:11;;;;;;;8.20;2.20;;;;;;;29.68;33.49;101165.72;104839;1274;73026;-69
2022/08/10 08:19:09;;;;;;;6.00;2.00;;;;;;;30.47;33.13;101165.66;104715;1275;60467;-72
2022/08/10 08:22:18;;;;;;;6.50;2.00;;;;;;;32.20;31.07;101163.23;104716;1274;60476;-71
2022/08/10 08:25:26;;;;;;;5.80;2.10;;;;;;;33.79;28.70;101159.77;104760;1274;75376;-69
2022/08/10 08:28:15;;;;;;;6.00;1.80;;;;;;;34.91;26.41;101148.38;104969;1274;67958;-71
2022/08/10 08:31:04;;;;;;;7.20;1.90;;;;;;;35.83;25.02;101159.30;104682;1277;71591;-74
2022/08/10 08:33:54;;;;;;;6.80;1.70;;;;;;;36.44;23.59;101161.16;105268;1275;60573;-70
2022/08/10 08:36:43;;;;;;;5.30;1.40;;;;;;;37.02;23.32;101148.58;104891;1276;60597;-70
2022/08/10 08:39:32;;;;;;;5.90;1.30;;;;;;;37.51;22.83;101149.04;104932;1274;74095;-69
2022/08/10 08:43:00;;;;;;;10.40;5.60;;;;;;;36.41;22.95;101146.59;104897;1276;67897;-72
2022/08/10 08:46:19;;;;;;;6.20;2.10;;;;;;;35.17;24.17;101145.10;104697;1274;74719;-73
2022/08/10 08:49:33;;;;;;;5.30;1.20;;;;;;;35.21;24.62;101148.26;104923;1275;60443;-70
2022/08/10 08:53:24;;;;;;;5.20;1.40;;;;;;;36.01;24.05;101145.07;104849;1274;60542;-71
2022/08/10 08:56:57;;;;;;;5.60;1.30;;;;;;;36.95;22.43;101140.73;104857;1275;73958;-71
2022/08/10 09:00:39;;;;;;;5.40;1.20;;;;;;;37.30;22.27;101138.61;105114;1274;68523;-71
2022/08/10 09:03:29;;;;;;;6.20;1.30;;;;;;;37.77;21.83;101140.65;104883;1275;74456;-73
2022/08/10 09:06:28;;;;;;;4.80;1.20;;;;;;;38.15;21.36;101139.66;104941;1274;60609;-70
2022/08/10 09:09:46;;;;;;;5.30;1.20;;;;;;;38.49;20.70;101145.20;104713;1276;61038;-71
2022/08/10 09:12:52;;;;;;;5.80;1.20;;;;;;;38.53;20.80;101140.07;104872;1274;75536;-70
2022/08/10 09:16:08;;;;;;;4.80;1.20;;;;;;;38.79;20.63;101138.09;104698;1276;68143;-64
2022/08/10 09:19:32;;;;;;;4.50;1.10;;;;;;;38.88;20.20;101133.48;105505;1274;74408;-75
2022/08/10 09:22:43;;;;;;;4.60;1.10;;;;;;;38.71;20.06;101135.08;104975;1276;60589;-73
2022/08/10 09:25:38;;;;;;;4.30;1.00;;;;;;;38.62;20.38;101137.31;104905;1276;62500;-74
2022/08/10 09:28:39;;;;;;;4.70;1.00;;;;;;;38.46;20.32;101133.70;105228;1276;74062;-70
2022/08/10 09:31:40;;;;;;;5.80;1.50;;;;;;;38.29;20.74;101135.84;104933;1276;67825;-73
2022/08/10 09:35:09;;;;;;;7.80;3.70;;;;;;;37.99;20.58;101133.06;104987;1274;72640;-70
2022/08/10 09:38:50;;;;;;;5.00;1.30;;;;;;;38.00;21.26;101134.57;104798;1274;60885;-74
2022/08/10 09:42:31;;;;;;;4.90;1.40;;;;;;;38.07;21.08;101140.23;104787;1277;61237;-72
2022/08/10 09:45:33;;;;;;;5.70;1.70;;;;;;;37.89;21.00;101140.05;105237;1275;74309;-75
2022/08/10 09:48:44;;;;;;;5.50;1.70;;;;;;;37.75;21.34;101136.38;105148;1274;67318;-73
2022/08/10 09:52:06;;;;;;;5.70;1.30;;;;;;;37.71;21.48;101138.42;105637;1275;72911;-74
2022/08/10 09:55:22;;;;;;;5.40;1.10;;;;;;;37.83;21.61;101136.45;105006;1277;60555;-77
2022/08/10 09:59:09;;;;;;;5.80;1.50;;;;;;;37.77;21.15;101131.64;104737;1276;60564;-75
2022/08/10 10:02:48;;;;;;;6.50;3.10;;;;;;;37.65;21.21;101129.35;104912;1276;74694;-74
2022/08/10 10:06:03;;;;;;;6.50;1.60;;;;;;;37.59;21.48;101124.25;104861;1276;69033;-73
2022/08/10 10:09:14;;;;;;;4.60;1.20;;;;;;;37.40;21.35;101122.77;105151;1276;73460;-74
2022/08/10 10:12:40;;;;;;;5.00;1.20;;;;;;;37.26;21.92;101118.89;105133;1276;60564;-73
2022/08/10 10:16:04;;;;;;;7.70;1.70;;;;;;;37.50;22.03;101111.07;105168;1276;61209;-73
2022/08/10 10:19:50;;;;;;;4.40;1.20;;;;;;;37.61;21.63;101113.59;104824;1279;73801;-71
2022/08/10 10:23:12;;;;;;;4.60;1.00;;;;;;;37.35;21.92;101111.38;105114;1276;67795;-75
2022/08/10 10:26:18;;;;;;;5.10;1.20;;;;;;;37.34;21.85;101112.04;105151;1274;73934;-73
2022/08/10 10:29:44;;;;;;;4.10;0.90;;;;;;;37.38;22.06;101107.72;105276;1274;60452;-70
2022/08/10 10:33:18;;;;;;;5.50;1.60;;;;;;;37.55;22.21;101106.73;105089;1275;61195;-72
2022/08/10 10:36:08;;;;;;;5.00;1.00;;;;;;;37.41;21.87;101108.66;105035;1274;75876;-73
2022/08/10 10:39:00;;;;;;;4.70;1.00;;;;;;;37.36;21.91;101103.27;104985;1274;69581;-72
2022/08/10 10:42:20;;;;;;;5.00;1.00;;;;;;;37.43;21.92;101101.02;104553;1276;74285;-65
2022/08/10 10:46:03;;;;;;;4.80;1.10;;;;;;;37.49;21.60;101098.08;104720;1274;60508;-64
2022/08/10 10:48:54;;;;;;;4.70;1.00;;;;;;;37.51;21.71;101097.47;104773;1277;61788;-74
2022/08/10 10:52:09;;;;;;;4.60;1.00;;;;;;;36.86;22.30;101095.66;104894;1275;72680;-74
2022/08/10 10:55:25;;;;;;;4.00;0.90;;;;;;;37.20;21.98;101097.77;105071;1275;68155;-70
2022/08/10 10:58:38;;;;;;;7.10;1.10;;;;;;;36.58;22.68;101089.06;104951;1276;73485;-69
2022/08/10 11:02:06;;;;;;;5.80;1.10;;;;;;;36.57;23.11;101089.73;105084;1275;60848;-71
2022/08/10 11:05:04;;;;;;;4.40;1.00;;;;;;;36.37;22.71;101088.58;104548;1274;61039;-71
2022/08/10 11:08:21;;;;;;;5.00;1.20;;;;;;;36.58;23.02;101085.59;105199;1276;75165;-68
2022/08/10 11:11:24;;;;;;;4.60;1.20;;;;;;;36.86;22.87;101083.30;104984;1277;68804;-71
2022/08/10 11:14:43;;;;;;;5.40;1.20;;;;;;;37.28;22.36;101087.54;105187;1276;73084;-74
2022/08/10 11:18:35;;;;;;;5.60;1.10;;;;;;;37.23;21.53;101088.19;105046;1276;60575;-75
2022/08/10 11:21:47;;;;;;;4.00;0.80;;;;;;;37.13;22.31;101087.27;104768;1276;60490;-72
2022/08/10 11:25:10;;;;;;;4.40;1.00;;;;;;;37.03;22.49;101094.50;104969;1275;74446;-70
2022/08/10 11:28:40;;;;;;;6.60;1.10;;;;;;;35.86;23.39;101103.13;104756;1277;69285;-72
2022/08/10 11:31:42;;;;;;;4.90;1.00;;;;;;;34.83;24.97;101101.08;105088;1276;74477;-71
2022/08/10 11:35:27;;;;;;;5.60;1.10;;;;;;;34.42;25.61;101098.45;105086;1276;60497;-70
2022/08/10 11:39:08;;;;;;;5.60;1.20;;;;;;;34.12;25.81;101098.34;105242;1276;61562;-72
2022/08/10 11:42:20;;;;;;;4.80;1.10;;;;;;;33.83;26.19;101093.16;105157;1277;74080;-74
2022/08/10 11:45:35;;;;;;;5.50;1.30;;;;;;;33.39;26.86;101086.23;104899;1276;69574;-74
2022/08/10 11:48:37;;;;;;;4.40;1.10;;;;;;;32.77;27.87;101091.98;104524;1275;74378;-74
2022/08/10 11:51:54;;;;;;;4.20;1.10;;;;;;;31.95;28.07;101093.09;104978;1274;60372;-76
2022/08/10 11:55:01;;;;;;;5.10;1.10;;;;;;;31.32;28.68;101092.30;105074;1277;61084;-74
2022/08/10 11:57:59;;;;;;;4.50;1.10;;;;;;;30.81;29.61;101094.41;104827;1276;75852;-75
2022/08/10 12:00:48;;;;;;;16.50;13.50;;;;;;;30.42;29.84;101083.96;104600;1275;69500;-73
2022/08/10 12:03:40;;;;;;;18.10;12.70;;;;;;;29.94;31.20;101083.86;105159;1276;72885;-74
2022/08/10 12:06:28;;;;;;;5.80;1.90;;;;;;;29.39;31.56;101089.32;104902;1274;60603;-73
2022/08/10 12:09:37;;;;;;;6.00;1.40;;;;;;;28.82;32.05;101088.27;105028;1275;60505;-73
2022/08/10 12:13:11;;;;;;;5.40;1.20;;;;;;;28.15;33.94;101078.05;105459;1277;73261;-73
2022/08/10 12:16:17;;;;;;;5.10;1.30;;;;;;;27.63;35.09;101089.73;104776;1276;68883;-74
2022/08/10 12:19:32;;;;;;;5.10;1.20;;;;;;;27.26;35.65;101094.24;104569;1277;73309;-76
2022/08/10 12:23:21;;;;;;;5.10;1.50;;;;;;;26.84;35.80;101091.46;105084;1276;60841;-75
2022/08/10 12:26:25;;;;;;;5.30;1.30;;;;;;;26.41;36.52;101088.95;104851;1276;61116;-75
2022/08/10 12:29:28;;;;;;;5.10;1.50;;;;;;;26.09;37.11;101078.34;105096;1276;74978;-72
2022/08/10 12:32:34;;;;;;;5.00;1.20;;;;;;;25.99;37.80;101080.51;105174;1275;68022;-74
2022/08/10 12:36:07;;;;;;;5.50;1.60;;;;;;;25.76;38.96;101080.54;104815;1277;72914;-76
2022/08/10 12:39:42;;;;;;;5.70;1.20;;;;;;;25.56;40.03;101084.08;104869;1276;60485;-75
2022/08/10 12:42:47;;;;;;;5.10;1.50;;;;;;;25.45;39.73;101080.73;105123;1276;60464;-74
2022/08/10 12:46:13;;;;;;;7.40;1.40;;;;;;;25.23;40.42;101076.90;104851;1277;75295;-73
2022/08/10 12:49:24;;;;;;;5.40;1.40;;;;;;;25.04;40.15;101074.07;105011;1276;66803;-74
2022/08/10 12:52:57;;;;;;;7.80;2.90;;;;;;;24.92;39.98;101075.98;105094;1277;72915;-77
2022/08/10 12:55:52;;;;;;;5.30;1.60;;;;;;;24.81;40.27;101076.96;104771;1276;60371;-75
2022/08/10 12:58:42;;;;;;;5.60;1.30;;;;;;;24.79;39.97;101075.60;104727;1276;60560;-72
2022/08/10 13:01:54;;;;;;;5.80;1.30;;;;;;;24.76;39.92;101075.30;105011;1276;73114;-74
2022/08/10 13:05:02;;;;;;;5.00;1.30;;;;;;;24.62;40.92;101066.98;104961;1276;68927;-76
2022/08/10 13:09:07;;;;;;;4.30;1.00;;;;;;;24.62;40.73;101064.18;104730;1277;71841;-73
2022/08/10 13:11:18;;;;;;;4.90;1.20;;;;;;;24.56;40.14;101061.84;105424;1274;60374;-74
2022/08/10 13:14:57;;;;;;;5.60;1.70;;;;;;;24.54;41.27;101056.50;105351;1276;60389;-73
2022/08/10 13:17:49;;;;;;;5.30;1.50;;;;;;;24.56;41.47;101054.85;104749;1277;74119;-76
2022/08/10 13:20:40;;;;;;;5.60;1.30;;;;;;;24.50;39.72;101054.44;105032;1277;66785;-73
2022/08/10 13:23:34;;;;;;;5.40;1.50;;;;;;;24.42;40.54;101055.23;104934;1275;70724;-74
2022/08/10 13:26:24;;;;;;;6.00;1.80;;;;;;;24.42;41.17;101054.35;104903;1274;60525;-72
2022/08/10 13:29:16;;;;;;;5.10;1.40;;;;;;;24.41;40.77;101051.67;105006;1277;60578;-75
2022/08/10 13:32:12;;;;;;;6.70;1.40;;;;;;;24.37;40.24;101046.95;105035;1277;72588;-74
2022/08/10 13:35:07;;;;;;;5.80;1.40;;;;;;;24.26;40.71;101048.05;104835;1277;69478;-72
2022/08/10 13:37:57;;;;;;;5.40;1.40;;;;;;;24.19;41.45;101047.10;104804;1280;73130;-72
2022/08/10 13:40:48;;;;;;;5.90;1.20;;;;;;;24.20;40.86;101044.48;104664;1278;60495;-75
2022/08/10 13:43:49;;;;;;;6.00;1.70;;;;;;;24.20;41.98;101043.44;104526;1278;60361;-74
2022/08/10 13:46:40;;;;;;;5.70;1.70;;;;;;;24.21;42.34;101040.91;104756;1281;72776;-76
2022/08/10 13:49:32;;;;;;;5.10;1.50;;;;;;;24.22;42.80;101036.58;104539;1279;67858;-75
2022/08/10 13:52:24;;;;;;;5.00;1.50;;;;;;;24.23;42.44;101038.10;104506;1280;73044;-75
2022/08/10 13:55:16;;;;;;;5.10;1.30;;;;;;;24.25;42.06;101036.00;104665;1279;60560;-75
2022/08/10 13:58:04;;;;;;;6.10;1.30;;;;;;;24.25;42.05;101031.55;104852;1280;60649;-73